sensor_id;sensor_type;location;lat;lon;timestamp;P1;durP1;ratioP1;P2;durP2;ratioP2
28834;SDS011;15969;51.536;11.884;2023-04-09T00:01:02;29.20;;;22.60;;
28834;SDS011;15969;51.536;11.884;2023-04-09T00:03:35;30.60;;;23.30;;
28834;SDS011;15969;51.536;11.884;2023-04-09T00:06:02;30.00;;;22.17;;
28834;SDS011;15969;51.536;11.884;2023-04-09T00:08:29;32.87;;;23.13;;
28834;SDS011;15969;51.536;11.884;2023-04-09T00:10:56;27.67;;;21.47;;
28834;SDS011;15969;51.536;11.884;2023-04-09T00:13:23;32.43;;;24.33;;
28834;SDS011;15969;51.536;11.884;2023-04-09T00:15:48;30.37;;;22.93;;
28834;SDS011;15969;51.536;11.884;2023-04-09T00:18:14;31.50;;;22.57;;
28834;SDS011;15969;51.536;11.884;2023-04-09T00:20:41;33.17;;;23.53;;
28834;SDS011;15969;51.536;11.884;2023-04-09T00:23:07;29.40;;;23.50;;
28834;SDS011;15969;51.536;11.884;2023-04-09T00:25:33;29.80;;;23.30;;
28834;SDS011;15969;51.536;11.884;2023-04-09T00:27:59;31.33;;;24.50;;
28834;SDS011;15969;51.536;11.884;2023-04-09T00:30:25;30.07;;;22.93;;
28834;SDS011;15969;51.536;11.884;2023-04-09T00:32:54;28.83;;;22.57;;
28834;SDS011;15969;51.536;11.884;2023-04-09T00:35:20;30.20;;;22.90;;
28834;SDS011;15969;51.536;11.884;2023-04-09T00:37:45;27.90;;;21.23;;
28834;SDS011;15969;51.536;11.884;2023-04-09T00:40:11;28.63;;;21.93;;
28834;SDS011;15969;51.536;11.884;2023-04-09T00:42:37;28.73;;;22.53;;
28834;SDS011;15969;51.536;11.884;2023-04-09T00:45:03;28.43;;;21.97;;
28834;SDS011;15969;51.536;11.884;2023-04-09T00:47:30;27.90;;;21.33;;
28834;SDS011;15969;51.536;11.884;2023-04-09T00:49:56;29.37;;;20.87;;
28834;SDS011;15969;51.536;11.884;2023-04-09T00:52:22;26.43;;;20.13;;
28834;SDS011;15969;51.536;11.884;2023-04-09T00:54:49;28.20;;;21.63;;
28834;SDS011;15969;51.536;11.884;2023-04-09T00:57:15;24.33;;;19.87;;
28834;SDS011;15969;51.536;11.884;2023-04-09T00:59:42;24.73;;;19.33;;
28834;SDS011;15969;51.536;11.884;2023-04-09T01:02:08;23.67;;;18.53;;
28834;SDS011;15969;51.536;11.884;2023-04-09T01:04:35;24.17;;;18.73;;
28834;SDS011;15969;51.536;11.884;2023-04-09T01:07:13;24.80;;;18.73;;
28834;SDS011;15969;51.536;11.884;2023-04-09T01:10:16;28.30;;;19.33;;
28834;SDS011;15969;51.536;11.884;2023-04-09T01:15:47;25.20;;;18.90;;
28834;SDS011;15969;51.536;11.884;2023-04-09T01:18:38;26.27;;;19.47;;
28834;SDS011;15969;51.536;11.884;2023-04-09T01:21:18;24.40;;;18.87;;
28834;SDS011;15969;51.536;11.884;2023-04-09T01:26:50;23.60;;;18.20;;
28834;SDS011;15969;51.536;11.884;2023-04-09T01:29:27;24.60;;;18.10;;
28834;SDS011;15969;51.536;11.884;2023-04-09T01:31:59;26.13;;;18.27;;
28834;SDS011;15969;51.536;11.884;2023-04-09T01:34:27;28.57;;;19.00;;
28834;SDS011;15969;51.536;11.884;2023-04-09T01:36:55;24.70;;;19.07;;
28834;SDS011;15969;51.536;11.884;2023-04-09T01:39:24;26.23;;;17.73;;
28834;SDS011;15969;51.536;11.884;2023-04-09T01:41:51;24.83;;;17.77;;
28834;SDS011;15969;51.536;11.884;2023-04-09T01:44:17;24.30;;;18.23;;
28834;SDS011;15969;51.536;11.884;2023-04-09T01:46:45;25.27;;;18.50;;
28834;SDS011;15969;51.536;11.884;2023-04-09T01:49:12;24.40;;;16.53;;
28834;SDS011;15969;51.536;11.884;2023-04-09T01:51:39;23.70;;;16.90;;
28834;SDS011;15969;51.536;11.884;2023-04-09T01:54:06;23.40;;;15.90;;
28834;SDS011;15969;51.536;11.884;2023-04-09T01:56:39;22.60;;;16.67;;
28834;SDS011;15969;51.536;11.884;2023-04-09T01:59:09;22.60;;;17.30;;
28834;SDS011;15969;51.536;11.884;2023-04-09T02:01:45;23.30;;;17.03;;
28834;SDS011;15969;51.536;11.884;2023-04-09T02:04:22;25.87;;;17.70;;
28834;SDS011;15969;51.536;11.884;2023-04-09T02:09:32;25.57;;;18.07;;
28834;SDS011;15969;51.536;11.884;2023-04-09T02:12:04;22.43;;;16.47;;
28834;SDS011;15969;51.536;11.884;2023-04-09T02:14:35;22.00;;;16.53;;
28834;SDS011;15969;51.536;11.884;2023-04-09T02:17:02;22.00;;;16.00;;
28834;SDS011;15969;51.536;11.884;2023-04-09T02:19:37;19.37;;;14.97;;
28834;SDS011;15969;51.536;11.884;2023-04-09T02:22:08;19.67;;;14.53;;
28834;SDS011;15969;51.536;11.884;2023-04-09T02:24:35;22.00;;;16.30;;
28834;SDS011;15969;51.536;11.884;2023-04-09T02:27:01;22.07;;;16.00;;
28834;SDS011;15969;51.536;11.884;2023-04-09T02:29:27;18.53;;;14.73;;
28834;SDS011;15969;51.536;11.884;2023-04-09T02:31:54;19.93;;;14.13;;
28834;SDS011;15969;51.536;11.884;2023-04-09T02:34:20;21.53;;;14.87;;
28834;SDS011;15969;51.536;11.884;2023-04-09T02:36:46;20.70;;;15.13;;
28834;SDS011;15969;51.536;11.884;2023-04-09T02:39:11;21.23;;;15.37;;
28834;SDS011;15969;51.536;11.884;2023-04-09T02:41:38;20.67;;;14.77;;
28834;SDS011;15969;51.536;11.884;2023-04-09T02:44:03;22.30;;;16.37;;
28834;SDS011;15969;51.536;11.884;2023-04-09T02:46:29;21.33;;;15.10;;
28834;SDS011;15969;51.536;11.884;2023-04-09T02:48:55;20.97;;;15.13;;
28834;SDS011;15969;51.536;11.884;2023-04-09T02:51:20;23.93;;;14.70;;
28834;SDS011;15969;51.536;11.884;2023-04-09T02:53:46;19.80;;;15.50;;
28834;SDS011;15969;51.536;11.884;2023-04-09T02:56:12;18.43;;;14.17;;
28834;SDS011;15969;51.536;11.884;2023-04-09T02:58:38;20.83;;;15.30;;
28834;SDS011;15969;51.536;11.884;2023-04-09T03:01:03;19.30;;;14.40;;
28834;SDS011;15969;51.536;11.884;2023-04-09T03:03:29;22.73;;;15.17;;
28834;SDS011;15969;51.536;11.884;2023-04-09T03:05:55;21.87;;;16.40;;
28834;SDS011;15969;51.536;11.884;2023-04-09T03:08:21;24.93;;;15.77;;
28834;SDS011;15969;51.536;11.884;2023-04-09T03:10:46;23.57;;;16.23;;
28834;SDS011;15969;51.536;11.884;2023-04-09T03:13:12;23.10;;;16.53;;
28834;SDS011;15969;51.536;11.884;2023-04-09T03:15:38;24.90;;;15.27;;
28834;SDS011;15969;51.536;11.884;2023-04-09T03:18:04;27.43;;;17.60;;
28834;SDS011;15969;51.536;11.884;2023-04-09T03:20:29;22.37;;;16.70;;
28834;SDS011;15969;51.536;11.884;2023-04-09T03:22:55;25.30;;;17.77;;
28834;SDS011;15969;51.536;11.884;2023-04-09T03:25:21;25.57;;;17.53;;
28834;SDS011;15969;51.536;11.884;2023-04-09T03:27:46;23.73;;;17.57;;
28834;SDS011;15969;51.536;11.884;2023-04-09T03:30:12;22.13;;;16.83;;
28834;SDS011;15969;51.536;11.884;2023-04-09T03:32:38;22.07;;;15.37;;
28834;SDS011;15969;51.536;11.884;2023-04-09T03:35:04;22.17;;;16.97;;
28834;SDS011;15969;51.536;11.884;2023-04-09T03:37:29;24.73;;;17.13;;
28834;SDS011;15969;51.536;11.884;2023-04-09T03:39:55;23.87;;;16.00;;
28834;SDS011;15969;51.536;11.884;2023-04-09T03:42:21;23.83;;;17.23;;
28834;SDS011;15969;51.536;11.884;2023-04-09T03:44:46;23.17;;;17.53;;
28834;SDS011;15969;51.536;11.884;2023-04-09T03:47:12;24.50;;;17.47;;
28834;SDS011;15969;51.536;11.884;2023-04-09T03:49:38;25.30;;;18.60;;
28834;SDS011;15969;51.536;11.884;2023-04-09T03:52:04;24.47;;;17.73;;
28834;SDS011;15969;51.536;11.884;2023-04-09T03:54:30;23.47;;;17.83;;
28834;SDS011;15969;51.536;11.884;2023-04-09T03:56:56;22.97;;;16.77;;
28834;SDS011;15969;51.536;11.884;2023-04-09T03:59:22;21.53;;;16.30;;
28834;SDS011;15969;51.536;11.884;2023-04-09T04:01:48;21.77;;;16.70;;
28834;SDS011;15969;51.536;11.884;2023-04-09T04:04:14;23.43;;;16.63;;
28834;SDS011;15969;51.536;11.884;2023-04-09T04:06:39;24.00;;;17.07;;
28834;SDS011;15969;51.536;11.884;2023-04-09T04:09:05;23.70;;;17.50;;
28834;SDS011;15969;51.536;11.884;2023-04-09T04:11:31;23.80;;;17.90;;
28834;SDS011;15969;51.536;11.884;2023-04-09T04:13:56;23.17;;;16.90;;
28834;SDS011;15969;51.536;11.884;2023-04-09T04:16:22;22.37;;;16.23;;
28834;SDS011;15969;51.536;11.884;2023-04-09T04:18:48;24.57;;;16.80;;
28834;SDS011;15969;51.536;11.884;2023-04-09T04:21:14;21.63;;;16.07;;
28834;SDS011;15969;51.536;11.884;2023-04-09T04:23:40;21.83;;;15.93;;
28834;SDS011;15969;51.536;11.884;2023-04-09T04:26:09;22.23;;;15.90;;
28834;SDS011;15969;51.536;11.884;2023-04-09T04:28:36;20.90;;;15.80;;
28834;SDS011;15969;51.536;11.884;2023-04-09T04:31:06;19.23;;;15.17;;
28834;SDS011;15969;51.536;11.884;2023-04-09T04:33:34;22.83;;;16.10;;
28834;SDS011;15969;51.536;11.884;2023-04-09T04:36:03;21.07;;;16.57;;
28834;SDS011;15969;51.536;11.884;2023-04-09T04:38:30;22.20;;;15.70;;
28834;SDS011;15969;51.536;11.884;2023-04-09T04:40:56;19.43;;;14.53;;
28834;SDS011;15969;51.536;11.884;2023-04-09T04:43:22;22.53;;;15.77;;
28834;SDS011;15969;51.536;11.884;2023-04-09T04:45:47;25.20;;;16.87;;
28834;SDS011;15969;51.536;11.884;2023-04-09T04:48:13;25.57;;;18.70;;
28834;SDS011;15969;51.536;11.884;2023-04-09T04:50:39;25.07;;;18.13;;
28834;SDS011;15969;51.536;11.884;2023-04-09T04:53:04;22.27;;;16.63;;
28834;SDS011;15969;51.536;11.884;2023-04-09T04:55:30;24.20;;;16.83;;
28834;SDS011;15969;51.536;11.884;2023-04-09T04:57:56;20.97;;;15.33;;
28834;SDS011;15969;51.536;11.884;2023-04-09T05:00:21;22.20;;;15.90;;
28834;SDS011;15969;51.536;11.884;2023-04-09T05:02:47;22.47;;;16.33;;
28834;SDS011;15969;51.536;11.884;2023-04-09T05:05:13;23.13;;;15.97;;
28834;SDS011;15969;51.536;11.884;2023-04-09T05:07:38;24.43;;;15.97;;
28834;SDS011;15969;51.536;11.884;2023-04-09T05:10:04;19.87;;;15.13;;
28834;SDS011;15969;51.536;11.884;2023-04-09T05:12:31;22.33;;;16.93;;
28834;SDS011;15969;51.536;11.884;2023-04-09T05:14:57;22.27;;;16.30;;
28834;SDS011;15969;51.536;11.884;2023-04-09T05:17:22;25.07;;;17.37;;
28834;SDS011;15969;51.536;11.884;2023-04-09T05:19:51;24.33;;;16.77;;
28834;SDS011;15969;51.536;11.884;2023-04-09T05:22:18;23.77;;;15.67;;
28834;SDS011;15969;51.536;11.884;2023-04-09T05:24:43;26.97;;;18.23;;
28834;SDS011;15969;51.536;11.884;2023-04-09T05:27:09;26.30;;;18.47;;
28834;SDS011;15969;51.536;11.884;2023-04-09T05:29:35;26.57;;;18.27;;
28834;SDS011;15969;51.536;11.884;2023-04-09T05:32:00;25.00;;;18.03;;
28834;SDS011;15969;51.536;11.884;2023-04-09T05:34:26;25.47;;;18.97;;
28834;SDS011;15969;51.536;11.884;2023-04-09T05:36:52;27.00;;;19.67;;
28834;SDS011;15969;51.536;11.884;2023-04-09T05:39:18;29.60;;;21.07;;
28834;SDS011;15969;51.536;11.884;2023-04-09T05:41:43;25.27;;;19.23;;
28834;SDS011;15969;51.536;11.884;2023-04-09T05:44:10;28.77;;;19.40;;
28834;SDS011;15969;51.536;11.884;2023-04-09T05:46:36;27.93;;;20.23;;
28834;SDS011;15969;51.536;11.884;2023-04-09T05:49:02;28.80;;;20.87;;
28834;SDS011;15969;51.536;11.884;2023-04-09T05:51:28;28.63;;;19.60;;
28834;SDS011;15969;51.536;11.884;2023-04-09T05:53:54;24.57;;;18.43;;
28834;SDS011;15969;51.536;11.884;2023-04-09T05:56:20;29.63;;;20.57;;
28834;SDS011;15969;51.536;11.884;2023-04-09T05:58:48;27.97;;;20.50;;
28834;SDS011;15969;51.536;11.884;2023-04-09T06:01:14;28.13;;;21.40;;
28834;SDS011;15969;51.536;11.884;2023-04-09T06:03:39;28.67;;;21.60;;
28834;SDS011;15969;51.536;11.884;2023-04-09T06:06:05;27.97;;;19.83;;
28834;SDS011;15969;51.536;11.884;2023-04-09T06:08:31;27.10;;;20.53;;
28834;SDS011;15969;51.536;11.884;2023-04-09T06:10:57;29.87;;;22.47;;
28834;SDS011;15969;51.536;11.884;2023-04-09T06:13:22;35.40;;;24.60;;
28834;SDS011;15969;51.536;11.884;2023-04-09T06:15:48;38.23;;;26.30;;
28834;SDS011;15969;51.536;11.884;2023-04-09T06:18:14;39.10;;;28.60;;
28834;SDS011;15969;51.536;11.884;2023-04-09T06:20:40;47.17;;;31.70;;
28834;SDS011;15969;51.536;11.884;2023-04-09T06:23:06;45.03;;;31.87;;
28834;SDS011;15969;51.536;11.884;2023-04-09T06:25:31;46.83;;;33.57;;
28834;SDS011;15969;51.536;11.884;2023-04-09T06:27:57;45.17;;;30.80;;
28834;SDS011;15969;51.536;11.884;2023-04-09T06:30:23;48.40;;;33.67;;
28834;SDS011;15969;51.536;11.884;2023-04-09T06:32:49;45.10;;;31.47;;
28834;SDS011;15969;51.536;11.884;2023-04-09T06:35:15;40.67;;;30.20;;
28834;SDS011;15969;51.536;11.884;2023-04-09T06:37:40;39.73;;;29.10;;
28834;SDS011;15969;51.536;11.884;2023-04-09T06:40:06;41.03;;;29.10;;
28834;SDS011;15969;51.536;11.884;2023-04-09T06:42:32;42.00;;;31.57;;
28834;SDS011;15969;51.536;11.884;2023-04-09T06:44:58;48.80;;;32.93;;
28834;SDS011;15969;51.536;11.884;2023-04-09T06:47:24;47.73;;;34.27;;
28834;SDS011;15969;51.536;11.884;2023-04-09T06:49:50;48.33;;;33.80;;
28834;SDS011;15969;51.536;11.884;2023-04-09T06:52:16;48.93;;;35.90;;
28834;SDS011;15969;51.536;11.884;2023-04-09T06:54:41;47.90;;;34.57;;
28834;SDS011;15969;51.536;11.884;2023-04-09T06:57:07;53.67;;;38.30;;
28834;SDS011;15969;51.536;11.884;2023-04-09T06:59:33;54.73;;;37.60;;
28834;SDS011;15969;51.536;11.884;2023-04-09T07:01:59;51.20;;;36.47;;
28834;SDS011;15969;51.536;11.884;2023-04-09T07:04:24;53.20;;;37.97;;
28834;SDS011;15969;51.536;11.884;2023-04-09T07:06:51;52.97;;;37.60;;
28834;SDS011;15969;51.536;11.884;2023-04-09T07:09:18;52.20;;;36.90;;
28834;SDS011;15969;51.536;11.884;2023-04-09T07:11:44;50.37;;;36.23;;
28834;SDS011;15969;51.536;11.884;2023-04-09T07:14:10;46.50;;;35.57;;
28834;SDS011;15969;51.536;11.884;2023-04-09T07:16:36;47.63;;;34.53;;
28834;SDS011;15969;51.536;11.884;2023-04-09T07:19:02;47.13;;;34.67;;
28834;SDS011;15969;51.536;11.884;2023-04-09T07:21:27;48.43;;;34.63;;
28834;SDS011;15969;51.536;11.884;2023-04-09T07:23:56;48.70;;;35.30;;
28834;SDS011;15969;51.536;11.884;2023-04-09T07:26:22;46.23;;;34.77;;
28834;SDS011;15969;51.536;11.884;2023-04-09T07:28:47;49.67;;;36.13;;
28834;SDS011;15969;51.536;11.884;2023-04-09T07:31:13;47.80;;;35.80;;
28834;SDS011;15969;51.536;11.884;2023-04-09T07:33:38;48.87;;;34.37;;
28834;SDS011;15969;51.536;11.884;2023-04-09T07:36:04;47.07;;;35.00;;
28834;SDS011;15969;51.536;11.884;2023-04-09T07:38:30;44.20;;;34.03;;
28834;SDS011;15969;51.536;11.884;2023-04-09T07:40:57;44.97;;;34.40;;
28834;SDS011;15969;51.536;11.884;2023-04-09T07:43:22;45.90;;;34.67;;
28834;SDS011;15969;51.536;11.884;2023-04-09T07:45:48;46.77;;;33.67;;
28834;SDS011;15969;51.536;11.884;2023-04-09T07:48:15;43.53;;;32.40;;
28834;SDS011;15969;51.536;11.884;2023-04-09T07:50:41;42.97;;;32.13;;
28834;SDS011;15969;51.536;11.884;2023-04-09T07:53:08;43.57;;;32.10;;
28834;SDS011;15969;51.536;11.884;2023-04-09T07:55:35;43.63;;;32.40;;
28834;SDS011;15969;51.536;11.884;2023-04-09T07:58:01;43.13;;;32.70;;
28834;SDS011;15969;51.536;11.884;2023-04-09T08:00:28;43.67;;;33.00;;
28834;SDS011;15969;51.536;11.884;2023-04-09T08:02:54;44.27;;;32.47;;
28834;SDS011;15969;51.536;11.884;2023-04-09T08:05:21;43.90;;;33.93;;
28834;SDS011;15969;51.536;11.884;2023-04-09T08:07:47;39.60;;;31.17;;
28834;SDS011;15969;51.536;11.884;2023-04-09T08:10:14;45.63;;;33.53;;
28834;SDS011;15969;51.536;11.884;2023-04-09T08:12:40;41.47;;;31.33;;
28834;SDS011;15969;51.536;11.884;2023-04-09T08:15:07;39.80;;;31.17;;
28834;SDS011;15969;51.536;11.884;2023-04-09T08:17:33;39.20;;;30.80;;
28834;SDS011;15969;51.536;11.884;2023-04-09T08:20:01;45.13;;;34.07;;
28834;SDS011;15969;51.536;11.884;2023-04-09T08:22:28;44.03;;;34.93;;
28834;SDS011;15969;51.536;11.884;2023-04-09T08:24:54;43.93;;;34.20;;
28834;SDS011;15969;51.536;11.884;2023-04-09T08:27:21;40.70;;;31.20;;
28834;SDS011;15969;51.536;11.884;2023-04-09T08:29:47;40.90;;;33.33;;
28834;SDS011;15969;51.536;11.884;2023-04-09T08:32:13;43.10;;;33.00;;
28834;SDS011;15969;51.536;11.884;2023-04-09T08:34:39;41.20;;;32.23;;
28834;SDS011;15969;51.536;11.884;2023-04-09T08:37:05;39.60;;;32.23;;
28834;SDS011;15969;51.536;11.884;2023-04-09T08:39:31;42.10;;;33.57;;
28834;SDS011;15969;51.536;11.884;2023-04-09T08:41:57;42.47;;;32.90;;
28834;SDS011;15969;51.536;11.884;2023-04-09T08:44:26;40.53;;;30.57;;
28834;SDS011;15969;51.536;11.884;2023-04-09T08:46:53;35.90;;;28.10;;
28834;SDS011;15969;51.536;11.884;2023-04-09T08:49:19;34.37;;;29.00;;
28834;SDS011;15969;51.536;11.884;2023-04-09T08:51:46;35.63;;;27.27;;
28834;SDS011;15969;51.536;11.884;2023-04-09T08:54:16;40.70;;;32.20;;
28834;SDS011;15969;51.536;11.884;2023-04-09T08:56:44;42.07;;;32.53;;
28834;SDS011;15969;51.536;11.884;2023-04-09T08:59:13;35.03;;;28.40;;
28834;SDS011;15969;51.536;11.884;2023-04-09T09:01:42;35.20;;;27.97;;
28834;SDS011;15969;51.536;11.884;2023-04-09T09:04:08;36.53;;;27.37;;
28834;SDS011;15969;51.536;11.884;2023-04-09T09:06:38;32.80;;;26.63;;
28834;SDS011;15969;51.536;11.884;2023-04-09T09:11:44;33.03;;;26.77;;
28834;SDS011;15969;51.536;11.884;2023-04-09T09:14:13;31.63;;;26.07;;
28834;SDS011;15969;51.536;11.884;2023-04-09T09:16:41;30.47;;;25.47;;
28834;SDS011;15969;51.536;11.884;2023-04-09T09:19:09;30.10;;;25.53;;
28834;SDS011;15969;51.536;11.884;2023-04-09T09:21:54;30.00;;;24.93;;
28834;SDS011;15969;51.536;11.884;2023-04-09T09:24:21;35.30;;;27.07;;
28834;SDS011;15969;51.536;11.884;2023-04-09T09:26:47;32.03;;;25.90;;
28834;SDS011;15969;51.536;11.884;2023-04-09T09:29:13;31.83;;;25.87;;
28834;SDS011;15969;51.536;11.884;2023-04-09T09:31:45;31.97;;;26.97;;
28834;SDS011;15969;51.536;11.884;2023-04-09T09:34:13;29.60;;;25.40;;
28834;SDS011;15969;51.536;11.884;2023-04-09T09:36:41;34.40;;;28.20;;
28834;SDS011;15969;51.536;11.884;2023-04-09T09:39:07;35.07;;;28.87;;
28834;SDS011;15969;51.536;11.884;2023-04-09T09:41:37;34.67;;;28.70;;
28834;SDS011;15969;51.536;11.884;2023-04-09T09:44:06;29.83;;;26.23;;
28834;SDS011;15969;51.536;11.884;2023-04-09T09:46:34;33.37;;;27.67;;
28834;SDS011;15969;51.536;11.884;2023-04-09T09:49:02;28.77;;;24.53;;
28834;SDS011;15969;51.536;11.884;2023-04-09T09:51:30;27.63;;;24.57;;
28834;SDS011;15969;51.536;11.884;2023-04-09T09:53:57;31.03;;;24.00;;
28834;SDS011;15969;51.536;11.884;2023-04-09T09:56:24;28.77;;;24.73;;
28834;SDS011;15969;51.536;11.884;2023-04-09T09:59:05;31.40;;;25.57;;
28834;SDS011;15969;51.536;11.884;2023-04-09T10:01:45;28.97;;;23.57;;
28834;SDS011;15969;51.536;11.884;2023-04-09T10:04:12;29.30;;;24.40;;
28834;SDS011;15969;51.536;11.884;2023-04-09T10:06:41;28.63;;;23.93;;
28834;SDS011;15969;51.536;11.884;2023-04-09T10:09:08;28.53;;;24.20;;
28834;SDS011;15969;51.536;11.884;2023-04-09T10:11:35;28.23;;;24.57;;
28834;SDS011;15969;51.536;11.884;2023-04-09T10:14:02;29.30;;;24.90;;
28834;SDS011;15969;51.536;11.884;2023-04-09T10:16:29;28.50;;;24.13;;
28834;SDS011;15969;51.536;11.884;2023-04-09T10:18:56;28.97;;;24.47;;
28834;SDS011;15969;51.536;11.884;2023-04-09T10:24:07;28.57;;;24.40;;
28834;SDS011;15969;51.536;11.884;2023-04-09T10:26:33;28.80;;;23.97;;
28834;SDS011;15969;51.536;11.884;2023-04-09T10:29:11;29.37;;;25.13;;
28834;SDS011;15969;51.536;11.884;2023-04-09T10:31:44;27.80;;;24.30;;
28834;SDS011;15969;51.536;11.884;2023-04-09T10:34:21;29.70;;;24.47;;
28834;SDS011;15969;51.536;11.884;2023-04-09T10:37:00;28.00;;;24.67;;
28834;SDS011;15969;51.536;11.884;2023-04-09T10:39:26;26.37;;;23.53;;
28834;SDS011;15969;51.536;11.884;2023-04-09T10:41:55;27.93;;;23.93;;
28834;SDS011;15969;51.536;11.884;2023-04-09T10:44:24;28.13;;;23.63;;
28834;SDS011;15969;51.536;11.884;2023-04-09T10:46:52;26.57;;;23.60;;
28834;SDS011;15969;51.536;11.884;2023-04-09T10:49:22;26.00;;;21.77;;
28834;SDS011;15969;51.536;11.884;2023-04-09T10:52:02;24.90;;;22.13;;
28834;SDS011;15969;51.536;11.884;2023-04-09T10:54:48;27.47;;;22.20;;
28834;SDS011;15969;51.536;11.884;2023-04-09T10:57:21;26.23;;;21.63;;
28834;SDS011;15969;51.536;11.884;2023-04-09T10:59:52;27.20;;;22.90;;
28834;SDS011;15969;51.536;11.884;2023-04-09T11:08:04;27.00;;;22.30;;
28834;SDS011;15969;51.536;11.884;2023-04-09T11:10:39;27.33;;;22.33;;
28834;SDS011;15969;51.536;11.884;2023-04-09T11:13:09;24.87;;;21.67;;
28834;SDS011;15969;51.536;11.884;2023-04-09T11:15:37;26.33;;;22.33;;
28834;SDS011;15969;51.536;11.884;2023-04-09T11:18:03;25.93;;;22.13;;
28834;SDS011;15969;51.536;11.884;2023-04-09T11:20:32;27.50;;;22.83;;
28834;SDS011;15969;51.536;11.884;2023-04-09T11:22:58;25.47;;;22.43;;
28834;SDS011;15969;51.536;11.884;2023-04-09T11:25:28;27.90;;;22.23;;
28834;SDS011;15969;51.536;11.884;2023-04-09T11:27:56;26.37;;;22.73;;
28834;SDS011;15969;51.536;11.884;2023-04-09T11:30:22;25.50;;;21.97;;
28834;SDS011;15969;51.536;11.884;2023-04-09T11:32:48;24.23;;;21.60;;
28834;SDS011;15969;51.536;11.884;2023-04-09T11:35:15;25.90;;;22.20;;
28834;SDS011;15969;51.536;11.884;2023-04-09T11:37:43;25.63;;;21.87;;
28834;SDS011;15969;51.536;11.884;2023-04-09T11:40:43;25.97;;;22.97;;
28834;SDS011;15969;51.536;11.884;2023-04-09T11:43:11;25.83;;;21.90;;
28834;SDS011;15969;51.536;11.884;2023-04-09T11:45:38;29.23;;;22.77;;
28834;SDS011;15969;51.536;11.884;2023-04-09T11:48:04;25.30;;;21.43;;
28834;SDS011;15969;51.536;11.884;2023-04-09T11:50:30;25.40;;;20.80;;
28834;SDS011;15969;51.536;11.884;2023-04-09T11:52:56;24.00;;;21.33;;
28834;SDS011;15969;51.536;11.884;2023-04-09T11:55:28;24.27;;;21.67;;
28834;SDS011;15969;51.536;11.884;2023-04-09T11:57:58;25.57;;;21.03;;
28834;SDS011;15969;51.536;11.884;2023-04-09T12:00:25;26.57;;;22.63;;
28834;SDS011;15969;51.536;11.884;2023-04-09T12:03:01;23.40;;;20.97;;
28834;SDS011;15969;51.536;11.884;2023-04-09T12:05:29;24.47;;;21.67;;
28834;SDS011;15969;51.536;11.884;2023-04-09T12:07:58;22.77;;;20.37;;
28834;SDS011;15969;51.536;11.884;2023-04-09T12:10:27;23.83;;;20.87;;
28834;SDS011;15969;51.536;11.884;2023-04-09T12:13:00;24.10;;;20.67;;
28834;SDS011;15969;51.536;11.884;2023-04-09T12:15:30;24.87;;;21.43;;
28834;SDS011;15969;51.536;11.884;2023-04-09T12:18:08;23.10;;;20.63;;
28834;SDS011;15969;51.536;11.884;2023-04-09T12:20:41;24.13;;;21.07;;
28834;SDS011;15969;51.536;11.884;2023-04-09T12:23:09;22.03;;;19.30;;
28834;SDS011;15969;51.536;11.884;2023-04-09T12:25:40;21.33;;;19.13;;
28834;SDS011;15969;51.536;11.884;2023-04-09T12:28:07;22.50;;;20.20;;
28834;SDS011;15969;51.536;11.884;2023-04-09T12:30:36;22.53;;;19.57;;
28834;SDS011;15969;51.536;11.884;2023-04-09T12:33:02;22.90;;;19.60;;
28834;SDS011;15969;51.536;11.884;2023-04-09T12:35:28;20.53;;;18.33;;
28834;SDS011;15969;51.536;11.884;2023-04-09T12:37:54;21.70;;;19.33;;
28834;SDS011;15969;51.536;11.884;2023-04-09T12:40:20;21.03;;;18.57;;
28834;SDS011;15969;51.536;11.884;2023-04-09T12:42:46;23.17;;;19.60;;
28834;SDS011;15969;51.536;11.884;2023-04-09T12:45:15;20.40;;;18.27;;
28834;SDS011;15969;51.536;11.884;2023-04-09T12:47:43;21.07;;;18.83;;
28834;SDS011;15969;51.536;11.884;2023-04-09T12:50:09;19.97;;;17.73;;
28834;SDS011;15969;51.536;11.884;2023-04-09T12:52:36;20.70;;;18.53;;
28834;SDS011;15969;51.536;11.884;2023-04-09T12:55:03;19.30;;;17.23;;
28834;SDS011;15969;51.536;11.884;2023-04-09T12:57:30;20.40;;;18.20;;
28834;SDS011;15969;51.536;11.884;2023-04-09T12:59:56;19.47;;;17.37;;
28834;SDS011;15969;51.536;11.884;2023-04-09T13:02:21;21.40;;;18.43;;
28834;SDS011;15969;51.536;11.884;2023-04-09T13:04:47;19.87;;;17.20;;
28834;SDS011;15969;51.536;11.884;2023-04-09T13:07:15;20.43;;;17.37;;
28834;SDS011;15969;51.536;11.884;2023-04-09T13:09:43;18.97;;;16.97;;
28834;SDS011;15969;51.536;11.884;2023-04-09T13:12:10;20.33;;;18.17;;
28834;SDS011;15969;51.536;11.884;2023-04-09T13:14:39;17.90;;;16.07;;
28834;SDS011;15969;51.536;11.884;2023-04-09T13:17:05;19.87;;;17.33;;
28834;SDS011;15969;51.536;11.884;2023-04-09T13:19:31;17.23;;;15.47;;
28834;SDS011;15969;51.536;11.884;2023-04-09T13:21:57;17.60;;;15.70;;
28834;SDS011;15969;51.536;11.884;2023-04-09T13:24:22;18.73;;;16.87;;
28834;SDS011;15969;51.536;11.884;2023-04-09T13:26:48;17.27;;;15.47;;
28834;SDS011;15969;51.536;11.884;2023-04-09T13:29:14;17.90;;;16.10;;
28834;SDS011;15969;51.536;11.884;2023-04-09T13:31:40;18.60;;;16.60;;
28834;SDS011;15969;51.536;11.884;2023-04-09T13:34:06;16.87;;;15.17;;
28834;SDS011;15969;51.536;11.884;2023-04-09T13:36:31;17.20;;;15.23;;
28834;SDS011;15969;51.536;11.884;2023-04-09T13:38:58;17.27;;;15.50;;
28834;SDS011;15969;51.536;11.884;2023-04-09T13:41:29;18.10;;;16.20;;
28834;SDS011;15969;51.536;11.884;2023-04-09T13:43:56;17.40;;;15.60;;
28834;SDS011;15969;51.536;11.884;2023-04-09T13:46:22;16.27;;;14.57;;
28834;SDS011;15969;51.536;11.884;2023-04-09T13:48:48;16.13;;;14.43;;
28834;SDS011;15969;51.536;11.884;2023-04-09T13:51:13;17.20;;;15.40;;
28834;SDS011;15969;51.536;11.884;2023-04-09T13:53:39;16.20;;;14.50;;
28834;SDS011;15969;51.536;11.884;2023-04-09T13:56:05;18.10;;;14.20;;
28834;SDS011;15969;51.536;11.884;2023-04-09T13:58:31;16.03;;;14.43;;
28834;SDS011;15969;51.536;11.884;2023-04-09T14:00:56;17.17;;;15.47;;
28834;SDS011;15969;51.536;11.884;2023-04-09T14:03:22;17.13;;;15.43;;
28834;SDS011;15969;51.536;11.884;2023-04-09T14:05:48;16.53;;;14.83;;
28834;SDS011;15969;51.536;11.884;2023-04-09T14:08:14;15.93;;;14.23;;
28834;SDS011;15969;51.536;11.884;2023-04-09T14:10:40;16.70;;;15.00;;
28834;SDS011;15969;51.536;11.884;2023-04-09T14:13:06;16.00;;;14.50;;
28834;SDS011;15969;51.536;11.884;2023-04-09T14:15:34;14.87;;;13.40;;
28834;SDS011;15969;51.536;11.884;2023-04-09T14:18:00;15.13;;;13.53;;
28834;SDS011;15969;51.536;11.884;2023-04-09T14:20:26;16.27;;;14.57;;
28834;SDS011;15969;51.536;11.884;2023-04-09T14:22:52;15.17;;;13.67;;
28834;SDS011;15969;51.536;11.884;2023-04-09T14:25:18;15.10;;;13.60;;
28834;SDS011;15969;51.536;11.884;2023-04-09T14:27:44;15.70;;;14.10;;
28834;SDS011;15969;51.536;11.884;2023-04-09T14:30:10;15.20;;;13.70;;